sensor_id;sensor_type;location;lat;lon;timestamp;pressure;altitude;pressure_sealevel;temperature;humidity
61472;BME280;47337;54.068;12.114;2022-11-11T00:00:37;101867.94;;;13.49;100.00
61472;BME280;47337;54.068;12.114;2022-11-11T00:03:03;101862.59;;;13.46;100.00
61472;BME280;47337;54.068;12.114;2022-11-11T00:05:32;101866.13;;;13.45;100.00
61472;BME280;47337;54.068;12.114;2022-11-11T00:07:58;101874.06;;;13.48;100.00
61472;BME280;47337;54.068;12.114;2022-11-11T00:10:25;101875.78;;;13.44;100.00
61472;BME280;47337;54.068;12.114;2022-11-11T00:12:50;101882.00;;;13.48;100.00
61472;BME280;47337;54.068;12.114;2022-11-11T00:15:16;101885.47;;;13.44;100.00
61472;BME280;47337;54.068;12.114;2022-11-11T00:17:41;101877.47;;;13.39;100.00
61472;BME280;47337;54.068;12.114;2022-11-11T00:20:25;101891.44;;;13.35;100.00
61472;BME280;47337;54.068;12.114;2022-11-11T00:23:19;101891.56;;;13.41;100.00
61472;BME280;47337;54.068;12.114;2022-11-11T00:26:06;101896.91;;;13.44;100.00
61472;BME280;47337;54.068;12.114;2022-11-11T00:28:34;101881.97;;;13.45;100.00
61472;BME280;47337;54.068;12.114;2022-11-11T00:31:03;101901.22;;;13.41;100.00
61472;BME280;47337;54.068;12.114;2022-11-11T00:33:29;101890.59;;;13.35;100.00
61472;BME280;47337;54.068;12.114;2022-11-11T00:35:54;101889.69;;;13.36;100.00
61472;BME280;47337;54.068;12.114;2022-11-11T00:38:20;101901.06;;;13.32;100.00
61472;BME280;47337;54.068;12.114;2022-11-11T00:41:06;101906.34;;;13.32;100.00
61472;BME280;47337;54.068;12.114;2022-11-11T00:43:34;101902.78;;;13.30;100.00
61472;BME280;47337;54.068;12.114;2022-11-11T00:46:00;101904.47;;;13.26;100.00
61472;BME280;47337;54.068;12.114;2022-11-11T00:48:43;101900.09;;;13.27;100.00
61472;BME280;47337;54.068;12.114;2022-11-11T00:51:28;101902.78;;;13.30;100.00
61472;BME280;47337;54.068;12.114;2022-11-11T00:53:53;101915.88;;;13.25;100.00
61472;BME280;47337;54.068;12.114;2022-11-11T00:56:19;101935.25;;;13.27;100.00
61472;BME280;47337;54.068;12.114;2022-11-11T00:58:50;101935.22;;;13.24;100.00
61472;BME280;47337;54.068;12.114;2022-11-11T01:01:16;101925.59;;;13.28;100.00
61472;BME280;47337;54.068;12.114;2022-11-11T01:03:46;101925.50;;;13.22;100.00
61472;BME280;47337;54.068;12.114;2022-11-11T01:06:12;101926.41;;;13.22;100.00
61472;BME280;47337;54.068;12.114;2022-11-11T01:08:38;101926.50;;;13.28;100.00
61472;BME280;47337;54.068;12.114;2022-11-11T01:11:11;101927.28;;;13.23;100.00
61472;BME280;47337;54.068;12.114;2022-11-11T01:13:37;101925.59;;;13.28;100.00
61472;BME280;47337;54.068;12.114;2022-11-11T01:16:10;101931.69;;;13.25;100.00
61472;BME280;47337;54.068;12.114;2022-11-11T01:18:36;101918.38;;;13.17;100.00
61472;BME280;47337;54.068;12.114;2022-11-11T01:21:06;101914.16;;;13.27;100.00
61472;BME280;47337;54.068;12.114;2022-11-11T01:23:36;101914.16;;;13.27;100.00
61472;BME280;47337;54.068;12.114;2022-11-11T01:26:04;101906.19;;;13.23;100.00
61472;BME280;47337;54.068;12.114;2022-11-11T01:28:30;101904.38;;;13.20;100.00
61472;BME280;47337;54.068;12.114;2022-11-11T01:31:00;101911.34;;;13.16;100.00
61472;BME280;47337;54.068;12.114;2022-11-11T01:33:28;101908.69;;;13.16;100.00
61472;BME280;47337;54.068;12.114;2022-11-11T01:35:54;101902.63;;;13.21;100.00
61472;BME280;47337;54.068;12.114;2022-11-11T01:38:21;101906.81;;;13.11;100.00
61472;BME280;47337;54.068;12.114;2022-11-11T01:40:48;101933.09;;;13.06;100.00
61472;BME280;47337;54.068;12.114;2022-11-11T01:43:19;101930.59;;;13.12;100.00
61472;BME280;47337;54.068;12.114;2022-11-11T01:48:30;101924.31;;;13.07;100.00
61472;BME280;47337;54.068;12.114;2022-11-11T01:54:08;101904.97;;;13.07;100.00
61472;BME280;47337;54.068;12.114;2022-11-11T01:56:35;101897.88;;;13.04;100.00
61472;BME280;47337;54.068;12.114;2022-11-11T01:59:06;101895.22;;;13.01;100.00
61472;BME280;47337;54.068;12.114;2022-11-11T02:01:36;101896.97;;;13.01;100.00
61472;BME280;47337;54.068;12.114;2022-11-11T02:04:03;101898.63;;;12.96;100.00
61472;BME280;47337;54.068;12.114;2022-11-11T02:06:53;101905.66;;;12.97;100.00
61472;BME280;47337;54.068;12.114;2022-11-11T02:09:21;101897.69;;;12.92;100.00
61472;BME280;47337;54.068;12.114;2022-11-11T02:11:51;101897.69;;;12.92;100.00
61472;BME280;47337;54.068;12.114;2022-11-11T02:14:43;101896.88;;;12.96;100.00
61472;BME280;47337;54.068;12.114;2022-11-11T02:17:11;101886.16;;;12.87;100.00
61472;BME280;47337;54.068;12.114;2022-11-11T02:19:44;101877.25;;;12.82;100.00
61472;BME280;47337;54.068;12.114;2022-11-11T02:22:16;101886.16;;;12.87;100.00
61472;BME280;47337;54.068;12.114;2022-11-11T02:24:45;101884.38;;;12.86;100.00
61472;BME280;47337;54.068;12.114;2022-11-11T02:27:13;101887.16;;;12.92;100.00
61472;BME280;47337;54.068;12.114;2022-11-11T02:29:44;101882.59;;;12.85;100.00
61472;BME280;47337;54.068;12.114;2022-11-11T02:32:11;101891.28;;;12.79;100.00
61472;BME280;47337;54.068;12.114;2022-11-11T02:34:36;101896.78;;;12.90;100.00
61472;BME280;47337;54.068;12.114;2022-11-11T02:37:07;101894.81;;;12.80;100.00
61472;BME280;47337;54.068;12.114;2022-11-11T02:39:39;101901.03;;;12.85;100.00
61472;BME280;47337;54.068;12.114;2022-11-11T02:42:07;101915.91;;;12.80;100.00
61472;BME280;47337;54.068;12.114;2022-11-11T02:44:35;101914.06;;;12.76;100.00
61472;BME280;47337;54.068;12.114;2022-11-11T02:47:02;101917.63;;;12.78;100.00
61472;BME280;47337;54.068;12.114;2022-11-11T02:49:30;101921.88;;;12.73;100.00
61472;BME280;47337;54.068;12.114;2022-11-11T02:51:56;101921.16;;;12.80;100.00
61472;BME280;47337;54.068;12.114;2022-11-11T02:54:21;101924.59;;;12.76;100.00
61472;BME280;47337;54.068;12.114;2022-11-11T02:56:46;101932.53;;;12.77;100.00
61472;BME280;47337;54.068;12.114;2022-11-11T02:59:31;101926.19;;;12.68;100.00
61472;BME280;47337;54.068;12.114;2022-11-11T03:01:58;101929.78;;;12.73;100.00
61472;BME280;47337;54.068;12.114;2022-11-11T03:04:24;101940.34;;;12.73;100.00
61472;BME280;47337;54.068;12.114;2022-11-11T03:06:50;101943.75;;;12.67;100.00
61472;BME280;47337;54.068;12.114;2022-11-11T03:09:16;101938.41;;;12.64;100.00
61472;BME280;47337;54.068;12.114;2022-11-11T03:11:41;101956.09;;;12.71;100.00
61472;BME280;47337;54.068;12.114;2022-11-11T03:14:09;101949.09;;;12.70;100.00
61472;BME280;47337;54.068;12.114;2022-11-11T03:16:34;101964.03;;;12.73;100.00
61472;BME280;47337;54.068;12.114;2022-11-11T03:19:21;101957.03;;;12.73;100.00
61472;BME280;47337;54.068;12.114;2022-11-11T03:21:46;101956.13;;;12.73;100.00
61472;BME280;47337;54.068;12.114;2022-11-11T03:24:12;101951.56;;;12.64;100.00
61472;BME280;47337;54.068;12.114;2022-11-11T03:26:37;101966.66;;;12.70;100.00
61472;BME280;47337;54.068;12.114;2022-11-11T03:29:05;101970.13;;;12.69;100.00
61472;BME280;47337;54.068;12.114;2022-11-11T03:31:31;101963.91;;;12.65;100.00
61472;BME280;47337;54.068;12.114;2022-11-11T03:33:56;101962.88;;;12.59;100.00
61472;BME280;47337;54.068;12.114;2022-11-11T03:36:44;101963.81;;;12.62;100.00
61472;BME280;47337;54.068;12.114;2022-11-11T03:39:28;101955.25;;;12.71;100.00
61472;BME280;47337;54.068;12.114;2022-11-11T03:41:57;101949.09;;;12.72;100.00
61472;BME280;47337;54.068;12.114;2022-11-11T03:44:25;101957.81;;;12.68;100.00
61472;BME280;47337;54.068;12.114;2022-11-11T03:46:53;101955.97;;;12.64;100.00
61472;BME280;47337;54.068;12.114;2022-11-11T03:49:19;101954.19;;;12.63;100.00
61472;BME280;47337;54.068;12.114;2022-11-11T03:51:44;101950.69;;;12.64;100.00
61472;BME280;47337;54.068;12.114;2022-11-11T03:54:12;101961.19;;;12.62;100.00
61472;BME280;47337;54.068;12.114;2022-11-11T03:56:37;101978.75;;;12.62;100.00
61472;BME280;47337;54.068;12.114;2022-11-11T03:59:03;101977.84;;;12.60;100.00
61472;BME280;47337;54.068;12.114;2022-11-11T04:01:30;101988.34;;;12.58;100.00
61472;BME280;47337;54.068;12.114;2022-11-11T04:04:14;101986.41;;;12.50;100.00
61472;BME280;47337;54.068;12.114;2022-11-11T04:07:08;101995.34;;;12.58;100.00
61472;BME280;47337;54.068;12.114;2022-11-11T04:09:52;101989.31;;;12.63;100.00
61472;BME280;47337;54.068;12.114;2022-11-11T04:12:36;101987.41;;;12.56;100.00
61472;BME280;47337;54.068;12.114;2022-11-11T04:15:23;102006.88;;;12.63;100.00
61472;BME280;47337;54.068;12.114;2022-11-11T04:18:07;101998.00;;;12.58;100.00
61472;BME280;47337;54.068;12.114;2022-11-11T04:20:32;101989.22;;;12.59;100.00
61472;BME280;47337;54.068;12.114;2022-11-11T04:23:16;102012.97;;;12.60;100.00
61472;BME280;47337;54.068;12.114;2022-11-11T04:25:41;102003.16;;;12.53;100.00
61472;BME280;47337;54.068;12.114;2022-11-11T04:28:13;102003.97;;;12.51;100.00
61472;BME280;47337;54.068;12.114;2022-11-11T04:31:10;102001.47;;;12.57;100.00
61472;BME280;47337;54.068;12.114;2022-11-11T04:33:36;101997.94;;;12.56;100.00
61472;BME280;47337;54.068;12.114;2022-11-11T04:36:03;102001.41;;;12.54;100.00
61472;BME280;47337;54.068;12.114;2022-11-11T04:38:29;102011.03;;;12.53;100.00
61472;BME280;47337;54.068;12.114;2022-11-11T04:41:17;102007.56;;;12.54;100.00
61472;BME280;47337;54.068;12.114;2022-11-11T04:43:43;102005.69;;;12.49;100.00
61472;BME280;47337;54.068;12.114;2022-11-11T04:46:26;102007.34;;;12.45;100.00
61472;BME280;47337;54.068;12.114;2022-11-11T04:48:54;102016.91;;;12.41;100.00
61472;BME280;47337;54.068;12.114;2022-11-11T04:51:19;102018.91;;;12.52;100.00
61472;BME280;47337;54.068;12.114;2022-11-11T04:54:04;102013.59;;;12.49;100.00
61472;BME280;47337;54.068;12.114;2022-11-11T04:56:30;102011.84;;;12.51;100.00
61472;BME280;47337;54.068;12.114;2022-11-11T04:59:17;102002.25;;;12.53;100.00
61472;BME280;47337;54.068;12.114;2022-11-11T05:01:44;102002.25;;;12.53;100.00
61472;BME280;47337;54.068;12.114;2022-11-11T05:04:31;102002.22;;;12.51;100.00
61472;BME280;47337;54.068;12.114;2022-11-11T05:06:58;102008.38;;;12.52;100.00
61472;BME280;47337;54.068;12.114;2022-11-11T05:09:42;101999.78;;;12.59;100.00
61472;BME280;47337;54.068;12.114;2022-11-11T05:12:08;102000.47;;;12.52;100.00
61472;BME280;47337;54.068;12.114;2022-11-11T05:14:33;102006.66;;;12.54;100.00
61472;BME280;47337;54.068;12.114;2022-11-11T05:17:17;102017.00;;;12.44;100.00
61472;BME280;47337;54.068;12.114;2022-11-11T05:20:01;102010.16;;;12.53;100.00
61472;BME280;47337;54.068;12.114;2022-11-11T05:22:45;102011.91;;;12.52;100.00
61472;BME280;47337;54.068;12.114;2022-11-11T05:25:11;102008.16;;;12.42;100.00
61472;BME280;47337;54.068;12.114;2022-11-11T05:27:57;102005.69;;;12.50;100.00
61472;BME280;47337;54.068;12.114;2022-11-11T05:30:23;101998.53;;;12.43;100.00
61472;BME280;47337;54.068;12.114;2022-11-11T05:32:49;101995.09;;;12.45;100.00
61472;BME280;47337;54.068;12.114;2022-11-11T05:35:15;101999.41;;;12.43;100.00
61472;BME280;47337;54.068;12.114;2022-11-11T05:37:42;101990.75;;;12.48;100.00
61472;BME280;47337;54.068;12.114;2022-11-11T05:40:10;101992.44;;;12.45;100.00
61472;BME280;47337;54.068;12.114;2022-11-11T05:42:40;102003.75;;;12.41;100.00
61472;BME280;47337;54.068;12.114;2022-11-11T05:45:06;102010.00;;;12.45;100.00
61472;BME280;47337;54.068;12.114;2022-11-11T05:47:31;102012.47;;;12.37;100.00
61472;BME280;47337;54.068;12.114;2022-11-11T05:49:56;102005.56;;;12.44;100.00
61472;BME280;47337;54.068;12.114;2022-11-11T05:52:22;102008.03;;;12.36;100.00
61472;BME280;47337;54.068;12.114;2022-11-11T05:54:47;102009.88;;;12.40;100.00
61472;BME280;47337;54.068;12.114;2022-11-11T05:57:13;102013.22;;;12.33;100.00
61472;BME280;47337;54.068;12.114;2022-11-11T05:59:38;102020.38;;;12.37;100.00
61472;BME280;47337;54.068;12.114;2022-11-11T06:02:04;102027.50;;;12.43;100.00
61472;BME280;47337;54.068;12.114;2022-11-11T06:04:29;102020.56;;;12.46;100.00
61472;BME280;47337;54.068;12.114;2022-11-11T06:06:58;102031.03;;;12.43;100.00
61472;BME280;47337;54.068;12.114;2022-11-11T06:09:23;102031.84;;;12.39;100.00
61472;BME280;47337;54.068;12.114;2022-11-11T06:11:49;102036.22;;;12.40;100.00
61472;BME280;47337;54.068;12.114;2022-11-11T06:14:14;102038.88;;;12.42;100.00
61472;BME280;47337;54.068;12.114;2022-11-11T06:16:39;102032.69;;;12.40;100.00
61472;BME280;47337;54.068;12.114;2022-11-11T06:19:05;102038.94;;;12.43;100.00
61472;BME280;47337;54.068;12.114;2022-11-11T06:21:30;102037.16;;;12.42;100.00
61472;BME280;47337;54.068;12.114;2022-11-11T06:24:16;102046.88;;;12.45;100.00
61472;BME280;47337;54.068;12.114;2022-11-11T06:26:41;102038.88;;;12.42;100.00
61472;BME280;47337;54.068;12.114;2022-11-11T06:29:09;102035.31;;;12.40;100.00
61472;BME280;47337;54.068;12.114;2022-11-11T06:31:34;102045.94;;;12.43;100.00
61472;BME280;47337;54.068;12.114;2022-11-11T06:34:02;102061.06;;;12.52;100.00
61472;BME280;47337;54.068;12.114;2022-11-11T06:36:27;102065.19;;;12.39;100.00
61472;BME280;47337;54.068;12.114;2022-11-11T06:38:53;102074.94;;;12.44;100.00
61472;BME280;47337;54.068;12.114;2022-11-11T06:41:18;102071.47;;;12.45;100.00
61472;BME280;47337;54.068;12.114;2022-11-11T06:43:44;102071.38;;;12.42;100.00
61472;BME280;47337;54.068;12.114;2022-11-11T06:46:21;102073.38;;;12.53;100.00
61472;BME280;47337;54.068;12.114;2022-11-11T06:48:49;102074.47;;;12.62;100.00
61472;BME280;47337;54.068;12.114;2022-11-11T06:51:18;102076.13;;;12.57;100.00
61472;BME280;47337;54.068;12.114;2022-11-11T06:53:44;102070.06;;;12.60;100.00
61472;BME280;47337;54.068;12.114;2022-11-11T06:56:10;102069.00;;;12.53;100.00
61472;BME280;47337;54.068;12.114;2022-11-11T06:58:39;102083.06;;;12.54;100.00
61472;BME280;47337;54.068;12.114;2022-11-11T07:01:06;102087.41;;;12.52;100.00
61472;BME280;47337;54.068;12.114;2022-11-11T07:03:32;102077.78;;;12.54;100.00
61472;BME280;47337;54.068;12.114;2022-11-11T07:06:02;102087.41;;;12.52;100.00
61472;BME280;47337;54.068;12.114;2022-11-11T07:08:28;102082.28;;;12.58;100.00
61472;BME280;47337;54.068;12.114;2022-11-11T07:10:53;102086.59;;;12.54;100.00
61472;BME280;47337;54.068;12.114;2022-11-11T07:13:19;102099.94;;;12.62;100.00
61472;BME280;47337;54.068;12.114;2022-11-11T07:15:44;102099.06;;;12.63;100.00
61472;BME280;47337;54.068;12.114;2022-11-11T07:18:11;102092.81;;;12.58;100.00
61472;BME280;47337;54.068;12.114;2022-11-11T07:20:37;102102.31;;;12.51;100.00
61472;BME280;47337;54.068;12.114;2022-11-11T07:23:03;102091.81;;;12.53;100.00
61472;BME280;47337;54.068;12.114;2022-11-11T07:25:28;102100.09;;;12.68;100.00
61472;BME280;47337;54.068;12.114;2022-11-11T07:27:54;102093.84;;;12.64;100.00
61472;BME280;47337;54.068;12.114;2022-11-11T07:30:19;102097.41;;;12.66;100.00
61472;BME280;47337;54.068;12.114;2022-11-11T07:32:48;102085.28;;;12.74;100.00
61472;BME280;47337;54.068;12.114;2022-11-11T07:35:14;102094.75;;;12.65;100.00
61472;BME280;47337;54.068;12.114;2022-11-11T07:37:43;102095.75;;;12.70;100.00
61472;BME280;47337;54.068;12.114;2022-11-11T07:40:12;102098.38;;;12.70;100.00
61472;BME280;47337;54.068;12.114;2022-11-11T07:42:39;102105.44;;;12.71;100.00
61472;BME280;47337;54.068;12.114;2022-11-11T07:45:06;102104.47;;;12.67;100.00
61472;BME280;47337;54.068;12.114;2022-11-11T07:47:32;102110.75;;;12.74;100.00
61472;BME280;47337;54.068;12.114;2022-11-11T07:49:59;102106.28;;;12.70;100.00
61472;BME280;47337;54.068;12.114;2022-11-11T07:52:29;102104.38;;;12.64;100.00
61472;BME280;47337;54.068;12.114;2022-11-11T07:54:55;102103.66;;;12.70;100.00
61472;BME280;47337;54.068;12.114;2022-11-11T07:57:23;102115.97;;;12.72;100.00
61472;BME280;47337;54.068;12.114;2022-11-11T07:59:49;102114.19;;;12.70;100.00
61472;BME280;47337;54.068;12.114;2022-11-11T08:02:14;102116.19;;;12.80;100.00
61472;BME280;47337;54.068;12.114;2022-11-11T08:04:42;102122.31;;;12.79;100.00
61472;BME280;47337;54.068;12.114;2022-11-11T08:07:08;102115.97;;;12.72;100.00
61472;BME280;47337;54.068;12.114;2022-11-11T08:09:34;102116.19;;;12.80;100.00
61472;BME280;47337;54.068;12.114;2022-11-11T08:11:59;102129.25;;;12.75;100.00
61472;BME280;47337;54.068;12.114;2022-11-11T08:14:43;102130.91;;;12.70;100.00
61472;BME280;47337;54.068;12.114;2022-11-11T08:17:08;102145.06;;;12.75;100.00
61472;BME280;47337;54.068;12.114;2022-11-11T08:19:34;102145.19;;;12.80;100.00
61472;BME280;47337;54.068;12.114;2022-11-11T08:21:59;102149.72;;;12.87;100.00
61472;BME280;47337;54.068;12.114;2022-11-11T08:24:28;102151.59;;;12.91;100.00
61472;BME280;47337;54.068;12.114;2022-11-11T08:26:54;102155.13;;;12.93;100.00
61472;BME280;47337;54.068;12.114;2022-11-11T08:29:19;102150.56;;;12.86;100.00
61472;BME280;47337;54.068;12.114;2022-11-11T08:31:45;102161.25;;;12.91;100.00
61472;BME280;47337;54.068;12.114;2022-11-11T08:34:11;102149.81;;;12.90;100.00
61472;BME280;47337;54.068;12.114;2022-11-11T08:36:37;102152.28;;;12.84;100.00
61472;BME280;47337;54.068;12.114;2022-11-11T08:39:02;102146.88;;;12.78;100.00
61472;BME280;47337;54.068;12.114;2022-11-11T08:41:28;102149.66;;;12.84;100.00
61472;BME280;47337;54.068;12.114;2022-11-11T08:43:56;102146.97;;;12.82;100.00
61472;BME280;47337;54.068;12.114;2022-11-11T08:46:25;102152.34;;;12.87;100.00
61472;BME280;47337;54.068;12.114;2022-11-11T08:48:50;102149.00;;;12.94;100.00
61472;BME280;47337;54.068;12.114;2022-11-11T08:51:16;102142.75;;;12.89;100.00
61472;BME280;47337;54.068;12.114;2022-11-11T08:53:44;102151.72;;;12.97;100.00
61472;BME280;47337;54.068;12.114;2022-11-11T08:56:10;102160.47;;;12.96;100.00
61472;BME280;47337;54.068;12.114;2022-11-11T08:58:36;102150.94;;;13.01;100.00
61472;BME280;47337;54.068;12.114;2022-11-11T09:01:02;102148.34;;;13.04;100.00
61472;BME280;47337;54.068;12.114;2022-11-11T09:03:28;102160.63;;;13.02;100.00
61472;BME280;47337;54.068;12.114;2022-11-11T09:05:56;102150.13;;;13.05;100.00
61472;BME280;47337;54.068;12.114;2022-11-11T09:08:22;102164.13;;;13.01;100.00
61472;BME280;47337;54.068;12.114;2022-11-11T09:10:47;102165.91;;;13.04;100.00
61472;BME280;47337;54.068;12.114;2022-11-11T09:13:13;102160.72;;;13.07;100.00
61472;BME280;47337;54.068;12.114;2022-11-11T09:15:38;102165.25;;;13.12;100.00
61472;BME280;47337;54.068;12.114;2022-11-11T09:18:04;102168.81;;;13.14;100.00
61472;BME280;47337;54.068;12.114;2022-11-11T09:20:29;102172.66;;;13.29;100.00
61472;BME280;47337;54.068;12.114;2022-11-11T09:22:55;102163.78;;;13.25;100.00
61472;BME280;47337;54.068;12.114;2022-11-11T09:25:21;102172.72;;;13.30;100.00
61472;BME280;47337;54.068;12.114;2022-11-11T09:27:57;102162.97;;;13.28;100.00
61472;BME280;47337;54.068;12.114;2022-11-11T09:30:27;102171.88;;;13.33;100.00
61472;BME280;47337;54.068;12.114;2022-11-11T09:33:01;102163.13;;;13.34;100.00
61472;BME280;47337;54.068;12.114;2022-11-11T09:35:27;102169.28;;;13.36;100.00
61472;BME280;47337;54.068;12.114;2022-11-11T09:37:56;102173.06;;;13.47;100.00
61472;BME280;47337;54.068;12.114;2022-11-11T09:40:24;102177.53;;;13.51;100.00
61472;BME280;47337;54.068;12.114;2022-11-11T09:51:36;102170.00;;;13.69;100.00
61472;BME280;47337;54.068;12.114;2022-11-11T09:54:13;102166.31;;;13.61;100.00
61472;BME280;47337;54.068;12.114;2022-11-11T09:56:41;102172.63;;;13.69;100.00
61472;BME280;47337;54.068;12.114;2022-11-11T09:59:17;102173.38;;;13.62;100.00
61472;BME280;47337;54.068;12.114;2022-11-11T10:01:49;102174.13;;;13.55;100.00
61472;BME280;47337;54.068;12.114;2022-11-11T10:07:00;102177.72;;;13.60;100.00
61472;BME280;47337;54.068;12.114;2022-11-11T10:09:41;102184.94;;;13.69;100.00
61472;BME280;47337;54.068;12.114;2022-11-11T10:12:12;102193.06;;;13.79;100.00
61472;BME280;47337;54.068;12.114;2022-11-11T10:14:41;102185.09;;;13.75;100.00
61472;BME280;47337;54.068;12.114;2022-11-11T10:17:32;102188.66;;;13.78;100.00
61472;BME280;47337;54.068;12.114;2022-11-11T10:22:41;102200.06;;;13.76;100.00
61472;BME280;47337;54.068;12.114;2022-11-11T10:27:45;102206.09;;;13.70;100.00
61472;BME280;47337;54.068;12.114;2022-11-11T10:30:32;102213.16;;;13.71;100.00
61472;BME280;47337;54.068;12.114;2022-11-11T10:33:11;102209.66;;;13.72;100.00
61472;BME280;47337;54.068;12.114;2022-11-11T10:35:38;102218.16;;;13.59;100.00
61472;BME280;47337;54.068;12.114;2022-11-11T10:40:40;102225.41;;;13.69;100.00
61472;BME280;47337;54.068;12.114;2022-11-11T10:43:27;102227.31;;;13.75;100.00
61472;BME280;47337;54.068;12.114;2022-11-11T10:48:52;102223.91;;;13.80;100.00
61472;BME280;47337;54.068;12.114;2022-11-11T10:51:19;102223.59;;;13.65;100.00
61472;BME280;47337;54.068;12.114;2022-11-11T10:56:40;102221.09;;;13.73;100.00
61472;BME280;47337;54.068;12.114;2022-11-11T10:59:18;102221.88;;;13.69;100.00
61472;BME280;47337;54.068;12.114;2022-11-11T11:01:56;102209.47;;;13.63;100.00
61472;BME280;47337;54.068;12.114;2022-11-11T11:04:40;102207.63;;;13.59;100.00
61472;BME280;47337;54.068;12.114;2022-11-11T11:07:12;102217.44;;;13.65;100.00
61472;BME280;47337;54.068;12.114;2022-11-11T11:10:05;102220.41;;;13.81;100.00
61472;BME280;47337;54.068;12.114;2022-11-11T11:12:57;102208.06;;;13.80;100.00
61472;BME280;47337;54.068;12.114;2022-11-11T11:15:26;102214.94;;;13.72;100.00
61472;BME280;47337;54.068;12.114;2022-11-11T11:18:08;102209.59;;;13.69;100.00
61472;BME280;47337;54.068;12.114;2022-11-11T11:20:36;102218.25;;;13.62;100.00
61472;BME280;47337;54.068;12.114;2022-11-11T11:23:02;102218.50;;;13.74;100.00
61472;BME280;47337;54.068;12.114;2022-11-11T11:25:30;102220.16;;;13.69;100.00
61472;BME280;47337;54.068;12.114;2022-11-11T11:28:12;102220.22;;;13.72;100.00
61472;BME280;47337;54.068;12.114;2022-11-11T11:30:38;102227.13;;;13.66;100.00
61472;BME280;47337;54.068;12.114;2022-11-11T11:33:08;102220.97;;;13.65;100.00
61472;BME280;47337;54.068;12.114;2022-11-11T11:35:41;102240.47;;;13.73;100.00
61472;BME280;47337;54.068;12.114;2022-11-11T11:38:10;102235.00;;;13.64;100.00
61472;BME280;47337;54.068;12.114;2022-11-11T11:40:56;102238.34;;;13.57;100.00
61472;BME280;47337;54.068;12.114;2022-11-11T11:43:37;102241.16;;;13.63;100.00
61472;BME280;47337;54.068;12.114;2022-11-11T11:46:14;102246.50;;;13.66;100.00
61472;BME280;47337;54.068;12.114;2022-11-11T11:56:19;102240.41;;;13.70;100.00
61472;BME280;47337;54.068;12.114;2022-11-11T11:58:57;102233.34;;;13.69;100.00
61472;BME280;47337;54.068;12.114;2022-11-11T12:07:09;102241.72;;;13.50;100.00
61472;BME280;47337;54.068;12.114;2022-11-11T12:10:17;102254.91;;;13.50;100.00
61472;BME280;47337;54.068;12.114;2022-11-11T12:12:44;102263.03;;;13.59;100.00
61472;BME280;47337;54.068;12.114;2022-11-11T12:20:27;102251.34;;;13.48;100.00
61472;BME280;47337;54.068;12.114;2022-11-11T12:23:19;102250.41;;;13.44;100.00
61472;BME280;47337;54.068;12.114;2022-11-11T12:36:34;102268.72;;;13.38;100.00
61472;BME280;47337;54.068;12.114;2022-11-11T12:39:10;102273.06;;;13.36;100.00
61472;BME280;47337;54.068;12.114;2022-11-11T12:44:12;102281.88;;;13.37;100.00
61472;BME280;47337;54.068;12.114;2022-11-11T12:50:20;102279.16;;;13.32;100.00
61472;BME280;47337;54.068;12.114;2022-11-11T12:55:57;102285.31;;;13.33;100.00
61472;BME280;47337;54.068;12.114;2022-11-11T12:58:54;102289.56;;;13.28;100.00
61472;BME280;47337;54.068;12.114;2022-11-11T13:04:15;102294.72;;;13.22;100.00
61472;BME280;47337;54.068;12.114;2022-11-11T13:15:04;102305.94;;;13.14;100.00
61472;BME280;47337;54.068;12.114;2022-11-11T13:17:37;102303.31;;;13.14;100.00
61472;BME280;47337;54.068;12.114;2022-11-11T13:23:10;102310.44;;;13.18;100.00
61472;BME280;47337;54.068;12.114;2022-11-11T13:25:43;102306.88;;;13.16;100.00
61472;BME280;47337;54.068;12.114;2022-11-11T13:31:19;102310.78;;;12.98;100.00
61472;BME280;47337;54.068;12.114;2022-11-11T13:33:54;102322.22;;;12.98;100.00
61472;BME280;47337;54.068;12.114;2022-11-11T13:36:25;102321.31;;;12.98;100.00
61472;BME280;47337;54.068;12.114;2022-11-11T13:38:57;102318.50;;;12.90;100.00
61472;BME280;47337;54.068;12.114;2022-11-11T13:41:29;102309.75;;;12.91;100.00
61472;BME280;47337;54.068;12.114;2022-11-11T13:43:59;102316.72;;;12.89;100.00
61472;BME280;47337;54.068;12.114;2022-11-11T13:48:57;102320.16;;;12.87;100.00
61472;BME280;47337;54.068;12.114;2022-11-11T13:51:36;102336.03;;;12.88;100.00
61472;BME280;47337;54.068;12.114;2022-11-11T13:54:05;102314.94;;;12.88;100.00
61472;BME280;47337;54.068;12.114;2022-11-11T13:56:42;102322.00;;;12.89;100.00
61472;BME280;47337;54.068;12.114;2022-11-11T13:59:36;102297.41;;;12.90;100.00
61472;BME280;47337;54.068;12.114;2022-11-11T14:10:55;102279.94;;;12.95;100.00
61472;BME280;47337;54.068;12.114;2022-11-11T14:15:49;102284.09;;;12.86;100.00
61472;BME280;47337;54.068;12.114;2022-11-11T14:20:49;102284.09;;;12.86;100.00
61472;BME280;47337;54.068;12.114;2022-11-11T14:25:43;102275.13;;;12.77;100.00
61472;BME280;47337;54.068;12.114;2022-11-11T14:36:46;102258.50;;;12.80;100.00
61472;BME280;47337;54.068;12.114;2022-11-11T15:00:24;102317.00;;;12.67;100.00
61472;BME280;47337;54.068;12.114;2022-11-11T15:02:54;102311.59;;;12.62;100.00